createdAt,value
2018-07-30T00:02:45.478Z,31.77
2018-07-30T00:05:15.330Z,49.37
2018-07-30T00:07:44.393Z,35.30
2018-07-30T01:02:42.094Z,46.80
2018-07-30T01:05:11.353Z,47.37
2018-07-30T01:07:40.410Z,41.50
2018-07-30T01:10:09.638Z,27.00
2018-07-30T02:02:44.303Z,36.63
2018-07-30T02:05:13.299Z,61.40
2018-07-30T02:07:42.868Z,30.63
2018-07-30T02:10:12.674Z,41.03
2018-07-30T03:02:37.446Z,61.80
2018-07-30T03:05:06.621Z,113.83
2018-07-30T03:07:35.665Z,88.40
2018-07-30T03:10:05.293Z,101.60
2018-07-30T04:02:54.592Z,63.47
2018-07-30T04:05:23.816Z,77.00
2018-07-30T04:07:52.947Z,49.17
2018-07-30T04:10:21.981Z,75.85
2018-07-30T05:02:57.906Z,33.07
2018-07-30T05:05:26.932Z,27.50
2018-07-30T05:07:55.970Z,23.90
2018-07-30T05:10:25.021Z,20.63
2018-07-30T06:02:37.409Z,17.00
2018-07-30T06:05:07.700Z,16.07
2018-07-30T06:07:37.554Z,15.53
2018-07-30T06:10:06.717Z,12.30
2018-07-30T07:02:40.805Z,12.70
2018-07-30T07:05:11.094Z,12.33
2018-07-30T07:07:40.082Z,14.90
2018-07-30T08:02:38.709Z,15.73
2018-07-30T08:05:24.202Z,14.07
2018-07-30T08:07:53.401Z,11.73
2018-07-30T09:02:39.150Z,14.17
2018-07-30T09:05:08.650Z,11.03
2018-07-30T09:07:37.826Z,13.30
2018-07-30T09:10:07.614Z,11.45
2018-07-30T10:02:38.745Z,9.17
2018-07-30T10:05:08.000Z,10.93
2018-07-30T10:07:36.984Z,8.63
2018-07-30T10:10:05.980Z,11.10
2018-07-30T11:02:44.327Z,6.50
2018-07-30T11:05:13.347Z,5.63
2018-07-30T11:07:42.431Z,7.60
2018-07-30T11:10:11.704Z,5.73
2018-07-30T12:03:04.962Z,9.43
2018-07-30T12:05:34.223Z,7.70
2018-07-30T12:08:03.301Z,8.70
2018-07-30T13:02:37.579Z,10.07
2018-07-30T13:05:06.677Z,8.43
2018-07-30T13:07:36.212Z,9.30
2018-07-30T13:10:05.836Z,10.47
2018-07-30T14:02:39.006Z,10.73
2018-07-30T14:05:09.018Z,8.97
2018-07-30T14:07:38.273Z,8.40
2018-07-30T15:02:38.265Z,10.80
2018-07-30T15:05:07.290Z,8.03
2018-07-30T15:07:36.379Z,11.23
2018-07-30T15:10:05.917Z,9.67
2018-07-30T16:02:37.320Z,9.10
2018-07-30T16:05:06.381Z,8.20
2018-07-30T16:07:35.450Z,8.93
2018-07-30T16:10:04.134Z,10.17
2018-07-30T17:02:42.437Z,10.37
2018-07-30T17:05:11.505Z,11.73
2018-07-30T17:07:40.524Z,13.03
2018-07-30T18:02:55.479Z,28.00
2018-07-30T18:05:24.605Z,55.27
2018-07-30T18:07:53.644Z,41.77
2018-07-30T19:02:37.388Z,19.73
2018-07-30T19:05:07.083Z,19.77
2018-07-30T19:07:36.365Z,18.67
2018-07-30T19:10:06.582Z,18.63
2018-07-30T20:02:38.316Z,23.43
2018-07-30T20:05:08.419Z,23.67
2018-07-30T20:07:37.881Z,22.23
2018-07-30T20:10:07.330Z,25.70
2018-07-30T21:02:37.556Z,26.03
2018-07-30T21:05:06.629Z,28.87
2018-07-30T21:07:35.612Z,27.23
2018-07-30T21:10:04.989Z,26.77
2018-07-30T22:02:41.197Z,34.37
2018-07-30T22:05:14.345Z,32.43
2018-07-30T22:07:44.057Z,28.30
2018-07-30T23:02:42.222Z,44.73
2018-07-30T23:05:11.337Z,42.80
2018-07-30T23:07:40.429Z,40.33
2018-07-30T23:10:09.570Z,38.47
